createdAt,value
2022-11-08T00:01:35.725Z,99052.97
2022-11-08T00:04:22.575Z,99027.75
2022-11-08T00:07:30.005Z,99033.00
2022-11-08T00:10:34.853Z,99027.63
2022-11-08T00:13:39.873Z,99037.94
2022-11-08T00:16:27.374Z,99021.47
2022-11-08T00:19:13.843Z,99006.66
2022-11-08T00:22:00.148Z,99029.19
2022-11-08T00:24:47.067Z,99049.13
2022-11-08T00:27:33.718Z,99037.09
2022-11-08T00:30:19.986Z,99017.78
2022-11-08T00:33:06.164Z,99030.75
2022-11-08T00:35:52.536Z,99035.81
2022-11-08T00:38:43.611Z,99021.22
2022-11-08T00:41:29.810Z,99005.47
2022-11-08T00:44:16.185Z,99018.38
2022-11-08T00:47:02.652Z,98998.28
2022-11-08T00:49:49.247Z,99012.94
2022-11-08T00:52:35.624Z,99023.19
2022-11-08T00:55:22.105Z,99023.19
2022-11-08T00:58:08.628Z,98988.69
2022-11-08T01:00:55.818Z,99012.84
2022-11-08T01:03:42.740Z,99005.97
2022-11-08T01:06:29.052Z,99017.03
2022-11-08T01:09:15.287Z,98981.69
2022-11-08T01:12:01.500Z,98998.97
2022-11-08T01:14:47.922Z,99000.66
2022-11-08T01:17:34.443Z,98997.25
2022-11-08T01:20:20.676Z,98972.09
2022-11-08T01:23:07.829Z,98976.44
2022-11-08T01:25:54.277Z,98983.41
2022-11-08T01:28:40.901Z,98998.31
2022-11-08T01:31:30.034Z,98990.34
2022-11-08T01:34:15.989Z,98969.75
2022-11-08T01:37:02.381Z,98998.38
2022-11-08T01:39:48.908Z,98999.13
2022-11-08T01:42:35.339Z,98989.84
2022-11-08T01:45:59.417Z,98987.19
2022-11-08T01:48:57.885Z,98968.28
2022-11-08T01:52:08.493Z,98919.75
2022-11-08T01:54:59.012Z,98966.50
2022-11-08T01:57:48.323Z,98970.03
2022-11-08T02:00:37.354Z,98921.66
2022-11-08T02:03:23.753Z,98922.41
2022-11-08T02:06:11.526Z,98944.06
2022-11-08T02:09:02.594Z,98913.81
2022-11-08T02:11:50.191Z,98919.75
2022-11-08T02:14:37.901Z,98907.66
2022-11-08T02:17:24.259Z,98900.91
2022-11-08T02:20:10.999Z,98931.94
2022-11-08T02:23:05.220Z,98930.22
2022-11-08T02:25:51.812Z,98925.03
2022-11-08T02:28:46.449Z,98907.00
2022-11-08T02:31:33.049Z,98914.91
2022-11-08T02:34:42.549Z,98909.88
2022-11-08T02:37:28.866Z,98917.50
2022-11-08T02:40:15.137Z,98872.69
2022-11-08T02:43:01.208Z,98906.09
2022-11-08T02:45:48.612Z,98901.19
2022-11-08T02:48:34.936Z,98893.28
2022-11-08T02:51:21.059Z,98903.59
2022-11-08T02:54:07.568Z,98849.03
2022-11-08T02:56:53.869Z,98901.59
2022-11-08T02:59:40.252Z,98894.66
2022-11-08T03:02:26.563Z,98883.28
2022-11-08T03:05:12.970Z,98876.50
2022-11-08T03:07:59.301Z,98901.50
2022-11-08T03:10:45.632Z,98871.19
2022-11-08T03:13:32.168Z,98866.28
2022-11-08T03:16:18.309Z,98876.25
2022-11-08T03:19:04.698Z,98866.75
2022-11-08T03:21:50.923Z,98901.13
2022-11-08T03:24:37.283Z,98902.91
2022-11-08T03:27:23.967Z,98907.78
2022-11-08T03:30:10.280Z,98888.75
2022-11-08T03:32:56.410Z,98905.91
2022-11-08T03:35:43.301Z,98881.09
2022-11-08T03:38:29.661Z,98908.78
2022-11-08T03:41:16.100Z,98900.97
2022-11-08T03:44:02.799Z,98920.41
2022-11-08T03:46:48.973Z,98879.22
2022-11-08T03:49:35.617Z,98867.19
2022-11-08T03:52:21.782Z,98894.59
2022-11-08T03:55:10.426Z,98880.56
2022-11-08T03:57:56.937Z,98862.44
2022-11-08T04:00:43.198Z,98908.03
2022-11-08T04:03:29.590Z,98866.06
2022-11-08T04:06:16.073Z,98864.41
2022-11-08T04:09:02.557Z,98899.44
2022-11-08T04:12:07.402Z,98886.16
2022-11-08T04:15:12.236Z,98869.50
2022-11-08T04:18:18.581Z,98873.84
2022-11-08T04:21:21.512Z,98848.16
2022-11-08T04:24:07.987Z,98843.84
2022-11-08T04:26:54.074Z,98836.06
2022-11-08T04:29:40.291Z,98870.66
2022-11-08T04:32:26.689Z,98802.16
2022-11-08T04:35:13.173Z,98839.50
2022-11-08T04:38:01.476Z,98861.97
2022-11-08T04:40:48.112Z,98868.13
2022-11-08T04:43:34.837Z,98807.81
2022-11-08T04:46:24.327Z,98849.44
2022-11-08T04:49:10.769Z,98843.44
2022-11-08T04:51:57.205Z,98821.25
2022-11-08T04:54:46.348Z,98836.41
2022-11-08T04:57:32.951Z,98812.50
2022-11-08T05:00:19.229Z,98839.31
2022-11-08T05:03:05.428Z,98816.97
2022-11-08T05:05:51.738Z,98837.47
2022-11-08T05:08:39.068Z,98831.66
2022-11-08T05:11:28.165Z,98804.59
2022-11-08T05:14:14.399Z,98780.97
2022-11-08T05:17:00.923Z,98823.34
2022-11-08T05:20:05.693Z,98805.25
2022-11-08T05:23:10.540Z,98805.25
2022-11-08T05:25:57.980Z,98829.50
2022-11-08T05:28:44.664Z,98833.00
2022-11-08T05:31:31.048Z,98828.72
2022-11-08T05:34:17.441Z,98831.97
2022-11-08T05:37:03.630Z,98823.53
2022-11-08T05:39:49.957Z,98766.47
2022-11-08T05:42:36.398Z,98827.84
2022-11-08T05:45:22.948Z,98822.81
2022-11-08T05:48:09.327Z,98792.50
2022-11-08T05:50:55.878Z,98805.38
2022-11-08T05:53:42.948Z,98822.50
2022-11-08T05:56:29.107Z,98819.09
2022-11-08T05:59:15.501Z,98812.09
2022-11-08T06:02:02.157Z,98806.22
2022-11-08T06:04:49.886Z,98808.84
2022-11-08T06:07:36.614Z,98801.00
2022-11-08T06:10:23.723Z,98804.59
2022-11-08T06:13:09.748Z,98789.16
2022-11-08T06:15:59.777Z,98776.78
2022-11-08T06:18:47.032Z,98796.44
2022-11-08T06:21:33.263Z,98782.84
2022-11-08T06:24:19.378Z,98777.13
2022-11-08T06:27:05.828Z,98815.81
2022-11-08T06:29:52.164Z,98805.28
2022-11-08T06:32:38.570Z,98807.31
2022-11-08T06:35:24.781Z,98811.72
2022-11-08T06:38:12.532Z,98800.47
2022-11-08T06:41:00.280Z,98790.00
2022-11-08T06:43:46.535Z,98791.00
2022-11-08T06:46:33.164Z,98805.84
2022-11-08T06:49:19.643Z,98782.00
2022-11-08T06:52:06.314Z,98807.16
2022-11-08T06:54:52.709Z,98778.97
2022-11-08T06:57:38.937Z,98818.69
2022-11-08T07:00:26.124Z,98819.75
2022-11-08T07:03:13.770Z,98823.53
2022-11-08T07:06:06.806Z,98806.50
2022-11-08T07:08:53.251Z,98828.44
2022-11-08T07:11:39.944Z,98833.50
2022-11-08T07:14:26.220Z,98826.59
2022-11-08T07:17:12.474Z,98831.84
2022-11-08T07:19:58.940Z,98842.00
2022-11-08T07:22:45.509Z,98821.47
2022-11-08T07:25:32.748Z,98828.50
2022-11-08T07:28:19.768Z,98825.94
2022-11-08T07:31:07.448Z,98813.47
2022-11-08T07:33:53.513Z,98820.63
2022-11-08T07:36:40.098Z,98809.38
2022-11-08T07:39:26.323Z,98799.22
2022-11-08T07:42:12.799Z,98788.09
2022-11-08T07:45:00.524Z,98820.19
2022-11-08T07:47:47.224Z,98808.25
2022-11-08T07:50:33.696Z,98781.88
2022-11-08T07:53:20.881Z,98796.88
2022-11-08T07:56:07.606Z,98748.25
2022-11-08T07:58:53.724Z,98786.41
2022-11-08T08:01:40.166Z,98788.41
2022-11-08T08:04:28.795Z,98790.31
2022-11-08T08:07:15.707Z,98806.84
2022-11-08T08:10:02.052Z,98783.72
2022-11-08T08:12:48.287Z,98782.13
2022-11-08T08:15:34.736Z,98804.50
2022-11-08T08:18:21.658Z,98777.03
2022-11-08T08:21:08.131Z,98811.50
2022-11-08T08:23:54.638Z,98751.25
2022-11-08T08:26:40.722Z,98798.66
2022-11-08T08:29:27.597Z,98782.31
2022-11-08T08:32:13.657Z,98781.44
2022-11-08T08:35:00.181Z,98799.47
2022-11-08T08:37:46.874Z,98762.50
2022-11-08T08:40:33.649Z,98716.88
2022-11-08T08:43:20.720Z,98792.53
2022-11-08T08:46:07.496Z,98759.81
2022-11-08T08:48:53.706Z,98775.25
2022-11-08T08:51:39.916Z,98798.44
2022-11-08T08:54:29.448Z,98797.53
2022-11-08T08:57:16.052Z,98816.41
2022-11-08T09:03:10.666Z,98787.84
2022-11-08T09:06:00.670Z,98788.69
2022-11-08T09:08:47.222Z,98795.63
2022-11-08T09:11:33.612Z,98777.56
2022-11-08T09:14:20.064Z,98805.06
2022-11-08T09:17:06.338Z,98806.75
2022-11-08T09:19:56.973Z,98787.03
2022-11-08T09:22:43.912Z,98796.38
2022-11-08T09:25:30.962Z,98810.97
2022-11-08T09:28:18.737Z,98831.59
2022-11-08T09:31:07.689Z,98824.81
2022-11-08T09:33:54.033Z,98836.78
2022-11-08T09:36:40.788Z,98829.88
2022-11-08T09:39:26.910Z,98784.31
2022-11-08T09:42:22.213Z,98815.16
2022-11-08T09:45:15.852Z,98827.19
2022-11-08T09:48:17.000Z,98810.66
2022-11-08T09:51:09.892Z,98805.38
2022-11-08T09:53:59.633Z,98797.38
2022-11-08T09:56:47.274Z,98820.50
2022-11-08T10:00:00.308Z,98813.16
2022-11-08T10:02:46.966Z,98806.13
2022-11-08T10:05:41.299Z,98819.53
2022-11-08T10:08:42.964Z,98788.25
2022-11-08T10:11:41.156Z,98777.84
2022-11-08T10:14:52.591Z,98811.19
2022-11-08T10:17:55.309Z,98805.00
2022-11-08T10:21:01.747Z,98798.16
2022-11-08T10:24:09.329Z,98779.19
2022-11-08T10:26:58.269Z,98787.03
2022-11-08T10:29:45.525Z,98779.44
2022-11-08T10:32:34.753Z,98758.72
2022-11-08T10:35:37.358Z,98749.97
2022-11-08T10:38:31.223Z,98777.31
2022-11-08T10:41:30.029Z,98788.47
2022-11-08T10:44:22.439Z,98761.94
2022-11-08T10:47:18.801Z,98763.56
2022-11-08T10:50:14.414Z,98787.72
2022-11-08T10:53:02.788Z,98746.50
2022-11-08T10:55:52.303Z,98782.44
2022-11-08T10:58:41.286Z,98780.66
2022-11-08T11:01:27.988Z,98763.22
2022-11-08T11:04:27.367Z,98780.31
2022-11-08T11:07:31.008Z,98769.72
2022-11-08T11:10:23.779Z,98766.09
2022-11-08T11:13:18.883Z,98755.69
2022-11-08T11:16:05.468Z,98719.16
2022-11-08T11:18:51.724Z,98744.19
2022-11-08T11:21:39.801Z,98760.31
2022-11-08T11:24:26.517Z,98745.53
2022-11-08T11:27:24.134Z,98747.16
2022-11-08T11:30:28.267Z,98745.44
2022-11-08T11:33:30.294Z,98742.09
2022-11-08T11:36:20.629Z,98733.66
2022-11-08T11:39:16.184Z,98740.72
2022-11-08T11:42:47.356Z,98752.22
2022-11-08T11:45:46.936Z,98730.91
2022-11-08T11:48:39.699Z,98717.31
2022-11-08T11:51:29.637Z,98732.88
2022-11-08T11:54:18.803Z,98740.53
2022-11-08T11:57:12.220Z,98745.56
2022-11-08T12:00:04.976Z,98742.91
2022-11-08T12:03:07.989Z,98716.69
2022-11-08T12:06:12.099Z,98701.16
2022-11-08T12:09:26.030Z,98721.63
2022-11-08T12:12:55.421Z,98730.66
2022-11-08T12:16:15.106Z,98681.25
2022-11-08T12:19:13.306Z,98721.16
2022-11-08T12:22:24.109Z,98694.28
2022-11-08T12:25:17.984Z,98690.59
2022-11-08T12:28:18.303Z,98707.28
2022-11-08T12:31:31.868Z,98710.59
2022-11-08T12:34:29.846Z,98716.41
2022-11-08T12:37:44.173Z,98711.25
2022-11-08T12:40:43.076Z,98706.84
2022-11-08T12:43:58.533Z,98706.94
2022-11-08T12:47:15.414Z,98676.50
2022-11-08T12:50:23.497Z,98694.13
2022-11-08T12:53:25.271Z,98697.56
2022-11-08T12:56:17.543Z,98692.00
2022-11-08T12:59:12.092Z,98692.09
2022-11-08T13:02:00.730Z,98695.78
2022-11-08T13:04:56.822Z,98687.41
2022-11-08T13:07:56.257Z,98690.19
2022-11-08T13:11:03.336Z,98688.41
2022-11-08T13:13:55.926Z,98685.97
2022-11-08T13:16:45.245Z,98677.63
2022-11-08T13:20:06.167Z,98679.25
2022-11-08T13:23:00.853Z,98660.81
2022-11-08T13:25:47.532Z,98677.97
2022-11-08T13:28:40.303Z,98642.03
2022-11-08T13:31:47.421Z,98660.38
2022-11-08T13:34:52.715Z,98676.09
2022-11-08T13:37:54.609Z,98670.50
2022-11-08T13:41:12.190Z,98672.31
2022-11-08T13:43:58.864Z,98666.41
2022-11-08T13:46:46.406Z,98664.56
2022-11-08T13:49:32.664Z,98659.53
2022-11-08T13:53:00.915Z,98670.00
2022-11-08T13:55:56.075Z,98663.88
2022-11-08T13:58:45.351Z,98665.63
2022-11-08T14:01:35.962Z,98666.47
2022-11-08T14:04:34.806Z,98666.69
2022-11-08T14:07:34.982Z,98641.00
2022-11-08T14:10:35.393Z,98655.59
2022-11-08T14:13:39.989Z,98666.34
2022-11-08T14:16:32.389Z,98645.34
2022-11-08T14:19:24.797Z,98655.69
2022-11-08T14:22:21.829Z,98667.84
2022-11-08T14:25:17.940Z,98662.41
2022-11-08T14:28:04.928Z,98640.91
2022-11-08T14:30:51.626Z,98659.81
2022-11-08T14:33:42.415Z,98653.97
2022-11-08T14:36:31.540Z,98670.63
2022-11-08T14:39:19.232Z,98652.88
2022-11-08T14:42:16.108Z,98646.09
2022-11-08T14:45:02.236Z,98645.28
2022-11-08T14:47:53.996Z,98652.19
2022-11-08T14:50:40.360Z,98666.84
2022-11-08T14:53:32.604Z,98621.41
2022-11-08T14:56:36.608Z,98660.88
2022-11-08T14:59:24.728Z,98656.50
2022-11-08T15:02:11.029Z,98658.34
2022-11-08T15:04:57.453Z,98658.34
2022-11-08T15:07:46.602Z,98659.31
2022-11-08T15:10:33.566Z,98618.81
2022-11-08T15:13:20.629Z,98629.91
2022-11-08T15:16:08.295Z,98653.56
2022-11-08T15:18:54.922Z,98617.56
2022-11-08T15:21:48.216Z,98645.28
2022-11-08T15:24:38.539Z,98626.63
2022-11-08T15:27:25.072Z,98622.47
2022-11-08T15:30:17.121Z,98637.09
2022-11-08T15:33:04.768Z,98647.69
2022-11-08T15:35:51.526Z,98645.19
2022-11-08T15:38:40.213Z,98647.22
2022-11-08T15:41:33.889Z,98645.72
2022-11-08T15:44:25.429Z,98636.34
2022-11-08T15:47:34.498Z,98643.47
2022-11-08T15:50:25.600Z,98645.16
2022-11-08T15:53:11.966Z,98645.44
2022-11-08T15:56:02.084Z,98654.28
2022-11-08T15:58:48.400Z,98646.75
2022-11-08T16:01:37.669Z,98636.59
2022-11-08T16:04:28.906Z,98649.53
2022-11-08T16:07:15.511Z,98660.00
2022-11-08T16:10:01.895Z,98652.31
2022-11-08T16:12:48.520Z,98636.19
2022-11-08T16:15:35.612Z,98640.47
2022-11-08T16:18:21.888Z,98638.06
2022-11-08T16:21:13.293Z,98619.94
2022-11-08T16:23:59.786Z,98621.69
2022-11-08T16:26:47.476Z,98604.50
2022-11-08T16:29:34.955Z,98643.16
2022-11-08T16:32:21.175Z,98637.91
2022-11-08T16:35:07.862Z,98634.50
2022-11-08T16:37:54.170Z,98624.28
2022-11-08T16:40:41.304Z,98630.25
2022-11-08T16:43:27.793Z,98605.56
2022-11-08T16:46:14.822Z,98634.03
2022-11-08T16:49:01.166Z,98558.56
2022-11-08T16:51:48.502Z,98628.94
2022-11-08T16:54:34.679Z,98600.63
2022-11-08T16:57:34.308Z,98623.00
2022-11-08T17:00:22.041Z,98628.13
2022-11-08T17:03:11.956Z,98627.25
2022-11-08T17:05:58.889Z,98618.78
2022-11-08T17:08:46.095Z,98643.75
2022-11-08T17:11:32.357Z,98616.31
2022-11-08T17:14:18.529Z,98635.25
2022-11-08T17:17:05.360Z,98643.91
2022-11-08T17:19:51.965Z,98634.53
2022-11-08T17:22:39.218Z,98640.50
2022-11-08T17:25:25.816Z,98655.19
2022-11-08T17:28:12.644Z,98650.91
2022-11-08T17:31:18.976Z,98623.38
2022-11-08T17:34:05.102Z,98663.00
2022-11-08T17:36:52.885Z,98642.38
2022-11-08T17:39:39.143Z,98635.59
2022-11-08T17:42:25.823Z,98656.09
2022-11-08T17:45:12.949Z,98642.38
2022-11-08T17:47:59.197Z,98655.22
2022-11-08T17:50:48.668Z,98661.25
2022-11-08T17:53:35.707Z,98639.78
2022-11-08T17:56:22.046Z,98638.78
2022-11-08T17:59:08.364Z,98610.44
2022-11-08T18:01:55.110Z,98631.84
2022-11-08T18:04:41.889Z,98658.56
2022-11-08T18:07:28.110Z,98625.00
2022-11-08T18:10:16.428Z,98656.81
2022-11-08T18:13:02.957Z,98648.16
2022-11-08T18:15:49.812Z,98618.94
2022-11-08T18:18:36.902Z,98662.84
2022-11-08T18:21:23.533Z,98645.63
2022-11-08T18:24:10.588Z,98670.47
2022-11-08T18:26:56.962Z,98650.66
2022-11-08T18:29:43.222Z,98666.16
2022-11-08T18:32:30.713Z,98664.53
2022-11-08T18:35:17.061Z,98603.44
2022-11-08T18:38:03.688Z,98666.19
2022-11-08T18:40:49.907Z,98661.94
2022-11-08T18:43:38.185Z,98673.19
2022-11-08T18:46:26.163Z,98674.94
2022-11-08T18:49:12.626Z,98650.13
2022-11-08T18:51:59.201Z,98682.84
2022-11-08T18:54:47.312Z,98675.81
2022-11-08T18:57:33.899Z,98649.28
2022-11-08T19:00:20.761Z,98674.25
2022-11-08T19:03:07.108Z,98649.31
2022-11-08T19:05:54.001Z,98667.22
2022-11-08T19:08:40.235Z,98660.31
2022-11-08T19:11:28.489Z,98656.78
2022-11-08T19:14:14.683Z,98658.41
2022-11-08T19:17:01.238Z,98669.53
2022-11-08T19:19:47.586Z,98642.19
2022-11-08T19:22:33.947Z,98661.09
2022-11-08T19:25:20.060Z,98635.19
2022-11-08T19:28:06.619Z,98615.44
2022-11-08T19:30:53.953Z,98639.53
2022-11-08T19:33:40.649Z,98643.03
2022-11-08T19:36:28.810Z,98664.59
2022-11-08T19:39:14.998Z,98651.72
2022-11-08T19:42:01.467Z,98635.50
2022-11-08T19:44:47.608Z,98640.66
2022-11-08T19:47:33.993Z,98664.69
2022-11-08T19:50:20.287Z,98657.88
2022-11-08T19:53:07.708Z,98673.41
2022-11-08T19:56:01.247Z,98643.41
2022-11-08T19:58:47.717Z,98608.19
2022-11-08T20:01:39.767Z,98639.06
2022-11-08T20:04:26.459Z,98670.84
2022-11-08T20:07:12.783Z,98651.94
2022-11-08T20:09:59.514Z,98658.78
2022-11-08T20:12:45.708Z,98673.41
2022-11-08T20:15:32.057Z,98682.88
2022-11-08T20:18:18.879Z,98688.91
2022-11-08T20:21:07.404Z,98682.88
2022-11-08T20:23:53.594Z,98690.63
2022-11-08T20:26:41.245Z,98662.31
2022-11-08T20:29:27.792Z,98649.44
2022-11-08T20:32:14.155Z,98676.03
2022-11-08T20:35:00.861Z,98651.94
2022-11-08T20:37:47.132Z,98683.72
2022-11-08T20:40:33.441Z,98665.69
2022-11-08T20:43:21.756Z,98671.63
2022-11-08T20:46:13.872Z,98671.56
2022-11-08T20:49:01.439Z,98693.13
2022-11-08T20:51:48.057Z,98662.09
2022-11-08T20:54:34.203Z,98683.59
2022-11-08T20:57:20.732Z,98656.03
2022-11-08T21:00:15.939Z,98685.16
2022-11-08T21:03:04.083Z,98695.56
2022-11-08T21:06:14.253Z,98688.66
2022-11-08T21:09:05.873Z,98661.16
2022-11-08T21:12:03.347Z,98688.56
2022-11-08T21:14:49.524Z,98678.19
2022-11-08T21:17:36.077Z,98689.41
2022-11-08T21:20:22.430Z,98607.81
2022-11-08T21:23:08.977Z,98677.31
2022-11-08T21:25:55.201Z,98633.50
2022-11-08T21:28:42.040Z,98679.03
2022-11-08T21:31:29.026Z,98682.56
2022-11-08T21:34:15.298Z,98658.56
2022-11-08T21:37:01.756Z,98677.53
2022-11-08T21:39:48.026Z,98676.72
2022-11-08T21:42:39.081Z,98681.94
2022-11-08T21:45:26.473Z,98675.19
2022-11-08T21:48:15.410Z,98689.88
2022-11-08T21:51:05.201Z,98671.88
2022-11-08T21:53:55.092Z,98660.75
2022-11-08T21:56:41.674Z,98685.72
2022-11-08T21:59:27.828Z,98696.03
2022-11-08T22:02:15.693Z,98699.53
2022-11-08T22:05:02.022Z,98678.94
2022-11-08T22:07:48.073Z,98699.66
2022-11-08T22:10:36.945Z,98694.47
2022-11-08T22:13:23.670Z,98676.44
2022-11-08T22:16:09.840Z,98689.41
2022-11-08T22:19:05.544Z,98720.38
2022-11-08T22:21:52.240Z,98695.38
2022-11-08T22:24:39.400Z,98728.06
2022-11-08T22:27:25.788Z,98716.03
2022-11-08T22:30:16.541Z,98701.44
2022-11-08T22:33:03.293Z,98717.75
2022-11-08T22:35:49.657Z,98728.97
2022-11-08T22:38:36.147Z,98725.50
2022-11-08T22:41:23.235Z,98732.41
2022-11-08T22:44:12.371Z,98730.69
2022-11-08T22:46:58.827Z,98708.34
2022-11-08T22:49:45.330Z,98729.84
2022-11-08T22:52:31.880Z,98710.91
2022-11-08T22:55:18.192Z,98665.34
2022-11-08T22:58:04.589Z,98667.03
2022-11-08T23:00:51.015Z,98684.25
2022-11-08T23:03:37.253Z,98701.47
2022-11-08T23:06:23.557Z,98697.16
2022-11-08T23:09:10.008Z,98679.06
2022-11-08T23:12:14.951Z,98689.34
2022-11-08T23:15:19.836Z,98708.28
2022-11-08T23:18:05.990Z,98671.31
2022-11-08T23:21:13.389Z,98704.03
2022-11-08T23:24:18.402Z,98686.78
2022-11-08T23:27:25.340Z,98701.44
2022-11-08T23:30:35.039Z,98698.00
2022-11-08T23:33:21.805Z,98667.03
2022-11-08T23:36:11.448Z,98684.25
2022-11-08T23:38:58.122Z,98694.56
2022-11-08T23:42:03.061Z,98690.25
2022-11-08T23:44:49.246Z,98649.84
2022-11-08T23:47:35.464Z,98660.16
2022-11-08T23:50:21.800Z,98688.53
2022-11-08T23:53:08.077Z,98660.16
2022-11-08T23:55:54.765Z,98667.91
2022-11-08T23:58:40.922Z,98669.63
